Time;durP1;ratioP1;P1;durP2;ratioP2;P2;SDS_P1;SDS_P2;PMS_P1;PMS_P2;Temp;Humidity;BMP_temperature;BMP_pressure;BME280_temperature;BME280_humidity;BME280_pressure;Samples;Min_cycle;Max_cycle;Signal;HPM_P1;HPM_P2
2022/11/08 00:01:30;;;;;;;;;;;;;;;10.97;100.00;101081.34;6266179;22;19911;-88
2022/11/08 00:03:55;;;;;;;;;;;;;;;10.77;100.00;101081.44;6263046;22;19915;-88
2022/11/08 00:14:39;;;;;;;;;;;;;;;10.88;100.00;101062.69;6294817;22;19911;-88
2022/11/08 00:17:08;;;;;;;;;;;;;;;11.08;100.00;101062.53;6296246;22;19922;-87
2022/11/08 00:19:33;;;;;;;;;;;;;;;11.17;100.00;101074.91;6290645;22;19911;-90
2022/11/08 00:21:59;;;;;;;;;;;;;;;11.05;100.00;101057.53;6289667;22;19914;-87
2022/11/08 00:24:27;;;;;;;;;;;;;;;10.93;100.00;101053.44;6263242;22;20275;-90
2022/11/08 00:26:55;;;;;;;;;;;;;;;10.97;100.00;101060.13;6238273;22;19915;-86
2022/11/08 00:29:22;;;;;;;;;;;;;;;10.88;100.00;101054.72;6264187;22;19918;-88
2022/11/08 00:31:47;;;;;;;;;;;;;;;10.76;100.00;101055.94;6266299;22;19922;-88
2022/11/08 00:34:13;;;;;;;;;;;;;;;10.89;100.00;101045.81;6265911;22;19915;-90
2022/11/08 00:36:38;;;;;;;;;;;;;;;10.91;100.00;101050.94;6263869;22;19916;-87
2022/11/08 00:39:03;;;;;;;;;;;;;;;10.74;100.00;101049.94;6293980;22;19911;-86
2022/11/08 00:41:32;;;;;;;;;;;;;;;10.56;100.00;101051.75;6243380;22;19918;-88
2022/11/08 00:44:00;;;;;;;;;;;;;;;10.62;100.00;101045.84;6270904;22;19911;-87
2022/11/08 00:46:26;;;;;;;;;;;;;;;10.66;100.00;101057.81;6300755;22;19899;-89
2022/11/08 00:48:51;;;;;;;;;;;;;;;10.75;100.00;101061.38;6251943;22;19922;-89
2022/11/08 00:51:16;;;;;;;;;;;;;;;10.96;100.00;101069.06;6302465;22;19908;-87
2022/11/08 00:53:43;;;;;;;;;;;;;;;10.99;100.00;101064.28;6276233;22;19944;-89
2022/11/08 00:56:10;;;;;;;;;;;;;;;11.03;100.00;101065.66;6278872;22;19941;-86
2022/11/08 00:58:35;;;;;;;;;;;;;;;10.84;100.00;101071.06;6294009;22;19946;-88
2022/11/08 01:01:17;;;;;;;;;;;;;;;10.88;100.00;101070.63;6268431;22;19930;-83
2022/11/08 01:03:44;;;;;;;;;;;;;;;11.05;100.00;101073.44;6297961;22;19917;-89
2022/11/08 01:06:10;;;;;;;;;;;;;;;11.17;100.00;101067.75;6241505;22;19933;-88
2022/11/08 01:08:36;;;;;;;;;;;;;;;10.98;100.00;101061.78;6261947;22;19988;-88
2022/11/08 01:11:02;;;;;;;;;;;;;;;11.13;100.00;101065.56;6288185;22;19915;-85
2022/11/08 01:13:28;;;;;;;;;;;;;;;11.07;100.00;101060.88;6287722;22;19911;-87
2022/11/08 01:15:53;;;;;;;;;;;;;;;11.19;100.00;101068.44;6258909;22;19933;-84
2022/11/08 01:18:19;;;;;;;;;;;;;;;11.14;100.00;101060.09;6286794;22;19918;-86
2022/11/08 01:20:46;;;;;;;;;;;;;;;11.26;100.00;101063.38;6286758;22;19915;-90
2022/11/08 01:23:15;;;;;;;;;;;;;;;11.39;100.00;101063.81;6263435;22;19922;-86
2022/11/08 01:25:42;;;;;;;;;;;;;;;11.52;100.00;101064.22;6286639;22;19911;-86
2022/11/08 01:28:08;;;;;;;;;;;;;;;11.56;100.00;101068.25;6284995;22;19919;-87
2022/11/08 01:30:37;;;;;;;;;;;;;;;11.34;100.00;101053.63;6288556;22;19953;-88
2022/11/08 01:33:04;;;;;;;;;;;;;;;11.19;100.00;101054.34;6287618;22;19956;-90
2022/11/08 01:35:33;;;;;;;;;;;;;;;11.39;100.00;101047.88;6263585;22;19907;-87
2022/11/08 01:37:59;;;;;;;;;;;;;;;11.39;100.00;101040.75;6236296;22;19986;-88
2022/11/08 01:40:26;;;;;;;;;;;;;;;11.50;100.00;101037.00;6288852;22;19918;-88
2022/11/08 01:42:52;;;;;;;;;;;;;;;11.71;100.00;101037.50;6262353;22;20318;-87
2022/11/08 01:45:36;;;;;;;;;;;;;;;11.66;100.00;101047.75;6291045;22;19921;-86
2022/11/08 01:48:02;;;;;;;;;;;;;;;11.76;100.00;101047.66;6289059;22;19960;-89
2022/11/08 01:50:27;;;;;;;;;;;;;;;11.70;100.00;101046.44;6266273;22;19907;-85
2022/11/08 01:52:53;;;;;;;;;;;;;;;11.75;100.00;101046.00;6290832;22;19911;-87
2022/11/08 01:55:27;;;;;;;;;;;;;;;11.81;100.00;101034.75;6291670;22;19915;-86
2022/11/08 01:57:58;;;;;;;;;;;;;;;11.69;100.00;101038.63;6288730;22;19911;-90
2022/11/08 02:00:24;;;;;;;;;;;;;;;11.65;100.00;101029.31;6289340;22;19918;-88
2022/11/08 02:03:10;;;;;;;;;;;;;;;11.81;100.00;101030.25;6260848;22;19915;-91
2022/11/08 02:05:35;;;;;;;;;;;;;;;11.82;100.00;101031.09;6264048;22;19914;-89
2022/11/08 02:08:04;;;;;;;;;;;;;;;11.87;100.00;101032.28;6288355;22;19964;-86
2022/11/08 02:10:37;;;;;;;;;;;;;;;11.74;100.00;101025.72;6289826;22;19999;-88
2022/11/08 02:13:03;;;;;;;;;;;;;;;11.83;100.00;101025.63;6286950;22;20334;-87
2022/11/08 02:15:29;;;;;;;;;;;;;;;11.72;100.00;101022.41;6289568;22;19911;-86
2022/11/08 02:17:55;;;;;;;;;;;;;;;11.67;100.00;101022.84;6285371;22;19907;-86
2022/11/08 02:20:21;;;;;;;;;;;;;;;11.60;100.00;101027.09;6284865;22;19911;-84
2022/11/08 02:22:51;;;;;;;;;;;;;;;11.75;100.00;101030.91;6287766;22;19961;-86
2022/11/08 02:25:16;;;;;;;;;;;;;;;11.49;100.00;101024.72;6295125;22;19911;-86
2022/11/08 02:27:42;;;;;;;;;;;;;;;11.57;100.00;101022.09;6295740;22;19911;-84
2022/11/08 02:30:08;;;;;;;;;;;;;;;11.47;100.00;101025.88;6291669;22;19927;-84
2022/11/08 02:32:40;;;;;;;;;;;;;;;11.57;100.00;101027.41;6262941;22;19959;-84
2022/11/08 02:35:09;;;;;;;;;;;;;;;11.47;100.00;101025.88;6285256;22;19915;-87
2022/11/08 02:37:38;;;;;;;;;;;;;;;11.49;100.00;101024.72;6286775;22;19915;-86
2022/11/08 02:40:04;;;;;;;;;;;;;;;11.50;100.00;101029.03;6285626;22;19915;-85
2022/11/08 02:42:29;;;;;;;;;;;;;;;11.48;100.00;101028.38;6287452;22;19973;-85
2022/11/08 02:44:54;;;;;;;;;;;;;;;11.50;100.00;101021.06;6284941;22;19994;-86
2022/11/08 02:47:22;;;;;;;;;;;;;;;11.62;100.00;101019.84;6285447;22;19911;-85
2022/11/08 02:49:48;;;;;;;;;;;;;;;11.59;100.00;101019.31;6256280;22;19918;-85
2022/11/08 02:52:14;;;;;;;;;;;;;;;11.58;100.00;101010.50;6257340;22;19981;-85
2022/11/08 02:54:39;;;;;;;;;;;;;;;11.51;100.00;101014.78;6284941;22;20283;-86
2022/11/08 02:57:05;;;;;;;;;;;;;;;11.63;100.00;101016.19;6286132;22;19915;-85
2022/11/08 02:59:30;;;;;;;;;;;;;;;11.73;100.00;101011.63;6286279;22;19974;-85
2022/11/08 03:01:55;;;;;;;;;;;;;;;11.66;100.00;101004.44;6231257;22;19907;-86
2022/11/08 03:04:21;;;;;;;;;;;;;;;11.75;100.00;101004.34;6257660;22;19911;-86
2022/11/08 03:06:46;;;;;;;;;;;;;;;11.63;100.00;101005.59;6282725;22;19913;-85
2022/11/08 03:09:12;;;;;;;;;;;;;;;11.38;100.00;100995.78;6256767;22;19918;-87
2022/11/08 03:11:38;;;;;;;;;;;;;;;11.38;100.00;100993.13;6283365;22;19918;-86
2022/11/08 03:14:03;;;;;;;;;;;;;;;11.38;100.00;100987.81;6255623;22;19907;-87
2022/11/08 03:16:28;;;;;;;;;;;;;;;11.45;100.00;100991.53;6283983;22;19911;-85
2022/11/08 03:18:54;;;;;;;;;;;;;;;11.45;100.00;100993.34;6283823;22;19994;-84
2022/11/08 03:21:19;;;;;;;;;;;;;;;11.45;100.00;100991.53;6284892;22;20013;-85
2022/11/08 03:23:45;;;;;;;;;;;;;;;11.46;100.00;100998.50;6289399;22;19914;-85
2022/11/08 03:26:10;;;;;;;;;;;;;;;11.49;100.00;101000.84;6295908;22;19914;-82
2022/11/08 03:28:35;;;;;;;;;;;;;;;11.49;100.00;100992.88;6270331;22;20242;-86
2022/11/08 03:31:01;;;;;;;;;;;;;;;11.36;100.00;100998.59;6297277;22;19952;-85
2022/11/08 03:33:26;;;;;;;;;;;;;;;11.30;100.00;100993.09;6287927;22;19915;-86
2022/11/08 03:35:52;;;;;;;;;;;;;;;11.39;100.00;100997.47;6298522;22;19930;-84
2022/11/08 03:38:18;;;;;;;;;;;;;;;11.32;100.00;100991.94;6294020;22;19907;-85
2022/11/08 03:40:44;;;;;;;;;;;;;;;11.27;100.00;100990.72;6264457;22;19908;-84
2022/11/08 03:43:09;;;;;;;;;;;;;;;11.11;100.00;100998.56;6264811;22;19913;-84
2022/11/08 03:45:35;;;;;;;;;;;;;;;11.11;100.00;100996.75;6263211;22;19915;-85
2022/11/08 03:48:01;;;;;;;;;;;;;;;11.13;100.00;100988.66;6291715;22;19911;-86
2022/11/08 03:50:26;;;;;;;;;;;;;;;11.02;100.00;100988.88;6287571;22;19937;-85
2022/11/08 03:52:54;;;;;;;;;;;;;;;11.11;100.00;100987.94;6255386;22;19999;-86
2022/11/08 03:55:20;;;;;;;;;;;;;;;10.81;100.00;100995.31;6284805;22;19917;-86
2022/11/08 03:57:47;;;;;;;;;;;;;;;10.78;100.00;100995.63;6257087;22;19915;-87
2022/11/08 04:00:14;;;;;;;;;;;;;;;10.87;100.00;100986.75;6256334;22;19990;-86
2022/11/08 04:02:40;;;;;;;;;;;;;;;10.77;100.00;100990.50;6283719;22;19968;-87
2022/11/08 04:05:06;;;;;;;;;;;;;;;10.84;100.00;100992.38;6283795;22;20334;-85
2022/11/08 04:07:32;;;;;;;;;;;;;;;10.77;100.00;100987.84;6284370;22;19934;-85
2022/11/08 04:10:00;;;;;;;;;;;;;;;10.82;100.00;100997.00;6283642;22;19918;-88
2022/11/08 04:15:14;;;;;;;;;;;;;;;10.63;100.00;100991.84;6283265;22;19953;-85
2022/11/08 04:23:08;;;;;;;;;;;;;;;10.57;100.00;100984.47;6282975;22;19914;-85
2022/11/08 04:25:33;;;;;;;;;;;;;;;10.58;100.00;100986.16;6285685;22;19931;-89
2022/11/08 04:27:58;;;;;;;;;;;;;;;10.51;100.00;100986.91;6285081;22;20242;-87
2022/11/08 04:30:24;;;;;;;;;;;;;;;10.48;100.00;100989.84;6286252;22;19912;-85
2022/11/08 04:32:49;;;;;;;;;;;;;;;10.68;100.00;100992.22;6284267;22;19919;-86
2022/11/08 04:35:16;;;;;;;;;;;;;;;10.62;100.00;100990.19;6284636;22;19915;-84
2022/11/08 04:37:42;;;;;;;;;;;;;;;10.62;100.00;100998.13;6285105;22;20348;-87
2022/11/08 04:40:08;;;;;;;;;;;;;;;10.53;100.00;101004.34;6257041;22;19911;-85
2022/11/08 04:42:33;;;;;;;;;;;;;;;10.56;100.00;100988.13;6257953;22;19918;-86
2022/11/08 04:44:59;;;;;;;;;;;;;;;10.65;100.00;100997.00;6283236;22;19911;-83
2022/11/08 04:47:24;;;;;;;;;;;;;;;10.61;100.00;100996.47;6283864;22;20021;-87
2022/11/08 04:49:49;;;;;;;;;;;;;;;10.63;100.00;100994.50;6282053;22;19986;-84
2022/11/08 04:52:15;;;;;;;;;;;;;;;10.50;100.00;100993.22;6284151;22;19919;-86
2022/11/08 04:54:43;;;;;;;;;;;;;;;10.44;100.00;100994.63;6286020;22;19937;-88
2022/11/08 04:57:09;;;;;;;;;;;;;;;10.43;100.00;100992.97;6284191;22;19911;-85
2022/11/08 04:59:34;;;;;;;;;;;;;;;10.48;100.00;100989.84;6285118;22;19907;-85
2022/11/08 05:02:00;;;;;;;;;;;;;;;10.45;100.00;100988.34;6283730;22;20228;-86
2022/11/08 05:04:25;;;;;;;;;;;;;;;10.55;100.00;100978.50;6284462;22;19914;-85
2022/11/08 05:06:50;;;;;;;;;;;;;;;10.61;100.00;100985.84;6283433;22;20345;-85
2022/11/08 05:09:16;;;;;;;;;;;;;;;10.65;100.00;100992.53;6283119;22;19911;-84
2022/11/08 05:11:41;;;;;;;;;;;;;;;10.63;100.00;100991.03;6281238;22;19982;-85
2022/11/08 05:14:06;;;;;;;;;;;;;;;10.47;100.00;100998.81;6284684;22;19907;-86
2022/11/08 05:16:32;;;;;;;;;;;;;;;10.40;100.00;100987.97;6282226;22;19957;-83
2022/11/08 05:18:57;;;;;;;;;;;;;;;10.48;100.00;100980.09;6283022;22;19917;-87
2022/11/08 05:24:09;;;;;;;;;;;;;;;10.17;100.00;100986.72;6282205;22;20330;-84
2022/11/08 05:26:36;;;;;;;;;;;;;;;10.12;100.00;100988.94;6283838;22;19911;-85
2022/11/08 05:29:01;;;;;;;;;;;;;;;10.32;100.00;100986.06;6284090;22;19907;-87
2022/11/08 05:31:26;;;;;;;;;;;;;;;10.39;100.00;100991.59;6282699;22;19942;-81
2022/11/08 05:33:52;;;;;;;;;;;;;;;10.17;100.00;100992.88;6287089;22;19923;-87
2022/11/08 05:36:18;;;;;;;;;;;;;;;9.90;100.00;100979.59;6257267;22;19907;-81
2022/11/08 05:38:43;;;;;;;;;;;;;;;9.98;100.00;100992.06;6283723;22;19911;-83
2022/11/08 05:41:14;;;;;;;;;;;;;;;9.81;100.00;100978.63;6281898;22;20286;-83
2022/11/08 05:43:40;;;;;;;;;;;;;;;9.56;100.00;100981.94;6280868;22;19911;-83
2022/11/08 05:46:05;;;;;;;;;;;;;;;9.74;100.00;100974.09;6279614;22;19937;-84
2022/11/08 05:48:31;;;;;;;;;;;;;;;9.87;100.00;100979.88;6282119;22;19911;-84
2022/11/08 05:50:56;;;;;;;;;;;;;;;9.73;100.00;100989.13;6256353;22;19922;-84
2022/11/08 05:53:21;;;;;;;;;;;;;;;9.88;100.00;100987.66;6258480;22;19914;-87
2022/11/08 05:55:47;;;;;;;;;;;;;;;9.95;100.00;100987.06;6284281;22;19911;-85
2022/11/08 05:58:13;;;;;;;;;;;;;;;10.01;100.00;100986.50;6285532;22;19986;-86
2022/11/08 06:00:38;;;;;;;;;;;;;;;9.77;100.00;100990.50;6282414;22;20283;-86
2022/11/08 06:03:04;;;;;;;;;;;;;;;9.82;100.00;100998.00;6282325;22;19915;-86
2022/11/08 06:05:30;;;;;;;;;;;;;;;9.91;100.00;100993.66;6228961;22;19938;-84
2022/11/08 06:07:55;;;;;;;;;;;;;;;10.00;100.00;100987.47;6281435;22;19911;-84
2022/11/08 06:10:21;;;;;;;;;;;;;;;9.65;100.00;100996.09;6277335;22;19911;-81
2022/11/08 06:12:47;;;;;;;;;;;;;;;9.54;100.00;100994.50;6278934;22;20239;-82
2022/11/08 06:15:13;;;;;;;;;;;;;;;9.52;100.00;100991.13;6252898;22;20516;-80
2022/11/08 06:17:38;;;;;;;;;;;;;;;9.32;100.00;100997.44;6277310;22;19922;-82
2022/11/08 06:20:06;;;;;;;;;;;;;;;9.21;100.00;100992.34;6279384;22;20404;-80
2022/11/08 06:22:31;;;;;;;;;;;;;;;9.25;100.00;100986.59;6284421;22;19914;-82
2022/11/08 06:24:57;;;;;;;;;;;;;;;9.15;100.00;100993.72;6282995;22;19911;-81
2022/11/08 06:27:22;;;;;;;;;;;;;;;9.32;100.00;100994.81;6282969;22;19911;-79
2022/11/08 06:29:48;;;;;;;;;;;;;;;9.66;100.00;101003.91;6280439;22;19911;-80
2022/11/08 06:32:14;;;;;;;;;;;;;;;9.71;100.00;100996.34;6280488;22;19915;-82
2022/11/08 06:34:39;;;;;;;;;;;;;;;9.79;100.00;101000.94;6253244;22;19911;-80
2022/11/08 06:37:07;;;;;;;;;;;;;;;10.06;100.00;101011.56;6280608;22;19910;-83
2022/11/08 06:39:33;;;;;;;;;;;;;;;10.12;100.00;101013.59;6280225;22;19911;-82
2022/11/08 06:42:01;;;;;;;;;;;;;;;10.21;100.00;101020.69;6254117;22;19911;-85
2022/11/08 06:44:29;;;;;;;;;;;;;;;10.44;100.00;101021.13;6259114;22;19939;-81
2022/11/08 06:46:55;;;;;;;;;;;;;;;10.89;100.00;101027.22;6296800;22;19945;-83
2022/11/08 06:49:21;;;;;;;;;;;;;;;11.21;100.00;101020.53;6274475;22;19911;-85
2022/11/08 06:51:47;;;;;;;;;;;;;;;11.56;100.00;101022.28;6275840;22;19911;-83
2022/11/08 06:54:12;;;;;;;;;;;;;;;11.27;100.00;101015.44;6299322;22;19911;-82
2022/11/08 06:56:37;;;;;;;;;;;;;;;11.51;100.00;101022.75;6243113;22;19935;-86
2022/11/08 06:59:03;;;;;;;;;;;;;;;11.62;100.00;101029.63;6229681;22;19919;-84
2022/11/08 07:01:28;;;;;;;;;;;;;;;11.59;100.00;101030.78;6281663;22;19907;-82
2022/11/08 07:03:54;;;;;;;;;;;;;;;11.73;100.00;101038.16;6283932;22;19986;-84
2022/11/08 07:06:19;;;;;;;;;;;;;;;11.55;100.00;101034.72;6283549;22;19911;-83
2022/11/08 07:08:44;;;;;;;;;;;;;;;11.62;100.00;101026.97;6282404;22;19926;-86
2022/11/08 07:11:10;;;;;;;;;;;;;;;11.84;100.00;101032.59;6282163;22;20326;-86
2022/11/08 07:13:35;;;;;;;;;;;;;;;12.13;100.00;101028.78;6282292;22;19922;-85
2022/11/08 07:16:01;;;;;;;;;;;;;;;12.25;100.00;101043.44;6282370;22;19911;-86
2022/11/08 07:18:27;;;;;;;;;;;;;;;12.94;100.00;101043.94;6257301;22;19991;-87
2022/11/08 07:20:57;;;;;;;;;;;;;;;13.87;100.00;101050.56;6258077;22;19911;-84
2022/11/08 07:23:23;;;;;;;;;;;;;;;13.93;100.00;101054.38;6258459;22;19911;-84
2022/11/08 07:25:48;;;;;;;;;;;;;;;13.81;100.00;101056.59;6255849;22;19963;-86
2022/11/08 07:28:16;;;;;;;;;;;;;;;14.06;100.00;101060.00;6282698;22;19959;-85
2022/11/08 07:30:41;;;;;;;;;;;;;;;14.31;100.00;101060.75;6282663;22;19918;-86
2022/11/08 07:33:06;;;;;;;;;;;;;;;13.60;100.00;101061.59;6283300;22;19915;-86
2022/11/08 07:35:32;;;;;;;;;;;;;;;13.26;100.00;101060.94;6281178;22;19915;-86
2022/11/08 07:37:57;;;;;;;;;;;;;;;12.61;100.00;101060.00;6281422;22;19934;-86
2022/11/08 07:40:23;;;;;;;;;;;;;;;12.67;100.00;101060.19;6229842;22;19929;-83
2022/11/08 07:42:49;;;;;;;;;;;;;;;12.31;100.00;101064.03;6283777;22;19911;-86
2022/11/08 07:45:14;;;;;;;;;;;;;;;12.26;100.00;101055.72;6256116;22;20346;-87
2022/11/08 07:47:40;;;;;;;;;;;;;;;12.44;100.00;101053.78;6257825;22;19918;-86
2022/11/08 07:50:08;;;;;;;;;;;;;;;12.42;100.00;101064.59;6255464;22;20227;-87
2022/11/08 07:52:34;;;;;;;;;;;;;;;12.54;100.00;101064.28;6281427;22;19913;-86
2022/11/08 07:54:59;;;;;;;;;;;;;;;12.41;100.00;101062.09;6254438;22;20250;-88
2022/11/08 07:57:24;;;;;;;;;;;;;;;12.50;100.00;101055.81;6255750;22;19911;-86
2022/11/08 07:59:50;;;;;;;;;;;;;;;12.52;100.00;101056.50;6287067;22;19911;-86
2022/11/08 08:02:15;;;;;;;;;;;;;;;12.36;100.00;101061.75;6295173;22;19919;-85
2022/11/08 08:04:41;;;;;;;;;;;;;;;12.31;100.00;101059.56;6295046;22;19919;-84
2022/11/08 08:07:06;;;;;;;;;;;;;;;12.21;100.00;101058.03;6287309;22;19907;-86
2022/11/08 08:09:34;;;;;;;;;;;;;;;12.10;100.00;101064.44;6281893;22;19911;-85
2022/11/08 08:12:03;;;;;;;;;;;;;;;12.02;100.00;101058.25;6282725;22;19934;-85
2022/11/08 08:14:28;;;;;;;;;;;;;;;12.05;100.00;101068.56;6282244;22;20242;-83
2022/11/08 08:16:54;;;;;;;;;;;;;;;12.11;100.00;101076.75;6282859;22;19911;-86
2022/11/08 08:19:19;;;;;;;;;;;;;;;12.05;100.00;101076.53;6255657;22;19911;-85
2022/11/08 08:21:45;;;;;;;;;;;;;;;12.01;100.00;101069.88;6281741;22;19988;-85
2022/11/08 08:24:10;;;;;;;;;;;;;;;11.97;100.00;101072.00;6282090;22;19903;-87
2022/11/08 08:26:38;;;;;;;;;;;;;;;11.88;100.00;101083.59;6253856;22;19915;-87
2022/11/08 08:29:04;;;;;;;;;;;;;;;12.02;100.00;101083.00;6282075;22;20345;-89
2022/11/08 08:31:30;;;;;;;;;;;;;;;12.04;100.00;101083.69;6280541;22;19964;-87
2022/11/08 08:33:55;;;;;;;;;;;;;;;12.06;100.00;101079.06;6280537;22;19922;-86
2022/11/08 08:36:21;;;;;;;;;;;;;;;12.14;100.00;101086.22;6280878;22;19911;-87
2022/11/08 08:38:46;;;;;;;;;;;;;;;12.38;100.00;101081.88;6280168;22;19990;-85
2022/11/08 08:41:11;;;;;;;;;;;;;;;12.34;100.00;101077.00;6281632;22;19911;-86
2022/11/08 08:43:37;;;;;;;;;;;;;;;12.53;100.00;101074.09;6280866;22;19998;-85
2022/11/08 08:46:04;;;;;;;;;;;;;;;12.62;100.00;101088.25;6253216;22;19945;-88
2022/11/08 08:48:30;;;;;;;;;;;;;;;12.72;100.00;101094.28;6280158;22;20242;-88
2022/11/08 08:50:55;;;;;;;;;;;;;;;12.68;100.00;101088.44;6281482;22;19911;-86
2022/11/08 08:53:21;;;;;;;;;;;;;;;12.64;100.00;101083.59;6279725;22;20242;-88
2022/11/08 08:55:47;;;;;;;;;;;;;;;12.67;100.00;101077.97;6280496;22;20036;-87
2022/11/08 08:58:12;;;;;;;;;;;;;;;12.71;100.00;101084.63;6280316;22;19986;-85
2022/11/08 09:00:38;;;;;;;;;;;;;;;12.76;100.00;101085.78;6252297;22;19955;-86
2022/11/08 09:03:04;;;;;;;;;;;;;;;12.92;100.00;101085.03;6280451;22;20291;-86
2022/11/08 09:05:30;;;;;;;;;;;;;;;12.98;100.00;101083.53;6279947;22;19968;-85
2022/11/08 09:07:56;;;;;;;;;;;;;;;13.02;100.00;101072.41;6280658;22;19990;-85
2022/11/08 09:10:21;;;;;;;;;;;;;;;13.00;100.00;101078.84;6280164;22;19918;-87
2022/11/08 09:12:47;;;;;;;;;;;;;;;12.94;100.00;101086.50;6280900;22;20234;-85
2022/11/08 09:15:12;;;;;;;;;;;;;;;12.94;100.00;101081.19;6280534;22;19990;-83
2022/11/08 09:17:37;;;;;;;;;;;;;;;13.16;100.00;101073.59;6255070;22;20250;-86
2022/11/08 09:20:03;;;;;;;;;;;;;;;13.25;100.00;101077.94;6255601;22;19980;-85
2022/11/08 09:22:31;;;;;;;;;;;;;;;13.27;100.00;101084.75;6284256;22;19922;-86
2022/11/08 09:24:56;;;;;;;;;;;;;;;13.47;100.00;101085.25;6283393;22;19959;-86
2022/11/08 09:27:23;;;;;;;;;;;;;;;13.64;100.00;101091.41;6256965;22;20231;-83
2022/11/08 09:29:48;;;;;;;;;;;;;;;13.46;100.00;101087.06;6283481;22;19918;-85
2022/11/08 09:32:14;;;;;;;;;;;;;;;13.46;100.00;101084.41;6254003;22;20315;-85
2022/11/08 09:34:39;;;;;;;;;;;;;;;13.54;100.00;101091.56;6281294;22;19911;-87
2022/11/08 09:37:08;;;;;;;;;;;;;;;13.59;100.00;101094.56;6280847;22;19915;-90
2022/11/08 09:39:33;;;;;;;;;;;;;;;13.92;100.00;101096.19;6279675;22;19911;-87
2022/11/08 09:41:58;;;;;;;;;;;;;;;14.25;100.00;101091.59;6228644;22;19938;-87
2022/11/08 09:44:41;;;;;;;;;;;;;;;14.47;100.00;101084.72;6280159;22;20040;-80
2022/11/08 09:47:19;;;;;;;;;;;;;;;14.70;100.00;101093.59;6253995;22;19922;-83
2022/11/08 09:49:48;;;;;;;;;;;;;;;14.42;100.00;101103.06;6281941;22;19934;-86
2022/11/08 09:52:22;;;;;;;;;;;;;;;14.47;100.00;101093.56;6282914;22;19907;-82
2022/11/08 09:54:49;;;;;;;;;;;;;;;14.43;100.00;101096.72;6257492;22;19911;-87
2022/11/08 09:57:27;;;;;;;;;;;;;;;14.17;100.00;101098.78;6288239;22;19923;-86
2022/11/08 10:00:04;;;;;;;;;;;;;;;14.28;100.00;101095.75;6284584;22;19911;-88
2022/11/08 10:02:30;;;;;;;;;;;;;;;14.27;100.00;101089.59;6285074;22;19915;-89
2022/11/08 10:04:58;;;;;;;;;;;;;;;14.29;100.00;101084.06;6284081;22;19922;-85
2022/11/08 10:07:43;;;;;;;;;;;;;;;14.49;100.00;101088.03;6286017;22;19911;-84
2022/11/08 10:10:23;;;;;;;;;;;;;;;14.58;100.00;101087.00;6290125;22;19911;-85
2022/11/08 10:12:56;;;;;;;;;;;;;;;14.43;100.00;101078.06;6290304;22;19911;-86
2022/11/08 10:15:25;;;;;;;;;;;;;;;14.31;100.00;101080.25;6263394;22;19911;-86
2022/11/08 10:18:02;;;;;;;;;;;;;;;14.13;100.00;101081.47;6288759;22;19910;-86
2022/11/08 10:20:48;;;;;;;;;;;;;;;13.98;100.00;101078.69;6256736;22;19917;-85
2022/11/08 10:23:32;;;;;;;;;;;;;;;14.20;100.00;101074.44;6231632;22;19911;-83
2022/11/08 10:26:02;;;;;;;;;;;;;;;14.31;100.00;101063.41;6281489;22;19915;-81
2022/11/08 10:28:32;;;;;;;;;;;;;;;14.58;100.00;101071.00;6281192;22;20281;-82
2022/11/08 10:30:58;;;;;;;;;;;;;;;14.64;100.00;101064.97;6256050;22;19957;-83
2022/11/08 10:33:42;;;;;;;;;;;;;;;14.70;100.00;101064.25;6281021;22;19923;-81
2022/11/08 10:36:26;;;;;;;;;;;;;;;15.15;100.00;101059.94;6279386;22;19942;-79
2022/11/08 10:39:11;;;;;;;;;;;;;;;15.07;100.00;101065.34;6278203;22;19911;-82
2022/11/08 10:41:55;;;;;;;;;;;;;;;14.96;100.00;101064.75;6278880;22;20219;-82
2022/11/08 10:44:23;;;;;;;;;;;;;;;15.01;100.00;101061.56;6253081;22;19960;-82
2022/11/08 10:46:54;;;;;;;;;;;;;;;15.04;100.00;101060.38;6288468;22;19922;-82
2022/11/08 10:49:35;;;;;;;;;;;;;;;15.06;100.00;101055.69;6258235;22;19911;-82
2022/11/08 10:52:11;;;;;;;;;;;;;;;15.14;100.00;101044.94;6284582;22;19911;-83
2022/11/08 10:54:43;;;;;;;;;;;;;;;15.28;100.00;101044.97;6279130;22;19911;-83
2022/11/08 10:57:09;;;;;;;;;;;;;;;15.31;100.00;101041.16;6279212;22;19918;-82
2022/11/08 10:59:35;;;;;;;;;;;;;;;14.99;100.00;101037.72;6277725;22;19914;-83
2022/11/08 11:02:00;;;;;;;;;;;;;;;15.23;100.00;101049.22;6283584;22;19986;-82
2022/11/08 11:04:33;;;;;;;;;;;;;;;15.18;100.00;101040.91;6281999;22;19914;-82
2022/11/08 11:07:03;;;;;;;;;;;;;;;15.23;100.00;101039.38;6280913;22;19911;-81
2022/11/08 11:09:28;;;;;;;;;;;;;;;15.20;100.00;101038.88;6280812;22;19939;-83
2022/11/08 11:12:05;;;;;;;;;;;;;;;15.28;100.00;101030.81;6279572;22;20362;-81
2022/11/08 11:14:31;;;;;;;;;;;;;;;15.11;100.00;101030.13;6280941;22;19969;-82
2022/11/08 11:17:01;;;;;;;;;;;;;;;14.93;100.00;101027.75;6279738;22;19911;-81
2022/11/08 11:19:27;;;;;;;;;;;;;;;15.08;100.00;101022.44;6279893;22;19911;-82
2022/11/08 11:22:06;;;;;;;;;;;;;;;14.90;100.00;101025.44;6279141;22;19980;-82
2022/11/08 11:24:35;;;;;;;;;;;;;;;15.01;100.00;101016.19;6279033;22;19911;-80
2022/11/08 11:27:03;;;;;;;;;;;;;;;15.07;100.00;101018.13;6279587;22;19918;-81
2022/11/08 11:29:30;;;;;;;;;;;;;;;15.11;100.00;101015.94;6252537;22;19907;-81
2022/11/08 11:31:56;;;;;;;;;;;;;;;15.27;100.00;101007.78;6281491;22;20323;-82
2022/11/08 11:34:45;;;;;;;;;;;;;;;15.21;100.00;101008.50;6280960;22;19934;-84
2022/11/08 11:37:10;;;;;;;;;;;;;;;15.16;100.00;101003.69;6259492;22;19911;-83
2022/11/08 11:39:35;;;;;;;;;;;;;;;15.34;100.00;100998.03;6281847;22;19922;-84
2022/11/08 11:42:10;;;;;;;;;;;;;;;15.44;100.00;100994.06;6280378;22;19907;-85
2022/11/08 11:44:54;;;;;;;;;;;;;;;15.51;100.00;100999.59;6279444;22;19915;-85
2022/11/08 11:47:23;;;;;;;;;;;;;;;15.57;100.00;101000.69;6280116;22;19907;-84
2022/11/08 11:49:51;;;;;;;;;;;;;;;15.34;100.00;100996.22;6281579;22;19918;-85
2022/11/08 11:52:19;;;;;;;;;;;;;;;15.31;100.00;100983.19;6281570;22;19930;-86
2022/11/08 11:54:48;;;;;;;;;;;;;;;15.16;100.00;101000.19;6278960;22;19918;-82
2022/11/08 11:57:20;;;;;;;;;;;;;;;15.17;100.00;100996.53;6283462;22;19911;-84
2022/11/08 12:00:00;;;;;;;;;;;;;;;14.85;100.00;100995.75;6280476;22;19919;-85
2022/11/08 12:02:44;;;;;;;;;;;;;;;14.94;100.00;100985.88;6280522;22;19919;-83
2022/11/08 12:05:19;;;;;;;;;;;;;;;14.91;100.00;100992.38;6280143;22;19986;-83
2022/11/08 12:07:48;;;;;;;;;;;;;;;14.90;100.00;100988.06;6280448;22;19911;-83
2022/11/08 12:10:17;;;;;;;;;;;;;;;14.90;100.00;100989.91;6279765;22;20267;-83
2022/11/08 12:13:00;;;;;;;;;;;;;;;14.93;100.00;100987.72;6254891;22;19965;-88
2022/11/08 12:15:44;;;;;;;;;;;;;;;14.92;100.00;100991.38;6256922;22;20412;-84
2022/11/08 12:18:26;;;;;;;;;;;;;;;15.06;100.00;100978.25;6281235;22;19911;-83
2022/11/08 12:20:54;;;;;;;;;;;;;;;14.89;100.00;100975.72;6282317;22;19911;-87
2022/11/08 12:23:46;;;;;;;;;;;;;;;14.93;100.00;100979.69;6252161;22;19911;-83
2022/11/08 12:26:52;;;;;;;;;;;;;;;14.79;100.00;100975.13;6256359;22;20263;-81
2022/11/08 12:29:22;;;;;;;;;;;;;;;15.01;100.00;100962.81;6131340;23;19913;-83
2022/11/08 12:31:50;;;;;;;;;;;;;;;15.06;100.00;100951.56;6130173;23;20230;-86
2022/11/08 12:34:28;;;;;;;;;;;;;;;15.10;100.00;100952.88;6209976;22;19915;-80
2022/11/08 12:36:54;;;;;;;;;;;;;;;15.11;100.00;100962.53;6290131;22;19943;-83
2022/11/08 12:39:22;;;;;;;;;;;;;;;14.98;100.00;100942.63;6303378;22;19907;-85
2022/11/08 12:41:51;;;;;;;;;;;;;;;14.84;100.00;100951.44;6305465;22;19899;-84
2022/11/08 12:44:29;;;;;;;;;;;;;;;15.02;100.00;100946.59;6299050;22;19915;-84
2022/11/08 12:47:06;;;;;;;;;;;;;;;15.11;100.00;100950.03;6288742;22;19987;-84
2022/11/08 12:49:48;;;;;;;;;;;;;;;15.20;100.00;100945.44;6283020;22;19959;-83
2022/11/08 12:52:16;;;;;;;;;;;;;;;15.20;100.00;100940.94;6282721;22;20025;-82